createdAt,value
2017-12-28T00:01:03.381Z,72.80
2017-12-28T00:03:30.873Z,72.60
2017-12-28T00:05:59.194Z,73.10
2017-12-28T00:08:26.694Z,72.40
2017-12-28T00:10:54.658Z,72.60
2017-12-28T00:13:22.356Z,72.50
2017-12-28T00:15:50.892Z,73.20
2017-12-28T00:18:19.000Z,72.60
2017-12-28T00:20:47.314Z,73.20
2017-12-28T00:23:14.775Z,72.60
2017-12-28T00:25:42.763Z,72.70
2017-12-28T00:28:10.217Z,72.40
2017-12-28T00:30:38.090Z,72.10
2017-12-28T00:33:05.620Z,72.00
2017-12-28T00:35:33.158Z,72.20
2017-12-28T00:38:00.588Z,72.00
2017-12-28T00:40:28.746Z,72.00
2017-12-28T00:42:56.223Z,72.70
2017-12-28T00:45:23.684Z,72.30
2017-12-28T00:47:52.414Z,72.70
2017-12-28T00:50:20.579Z,72.00
2017-12-28T00:52:48.031Z,72.20
2017-12-28T00:55:15.491Z,72.00
2017-12-28T00:57:42.946Z,72.10
2017-12-28T01:00:10.384Z,71.80
2017-12-28T01:02:37.884Z,71.80
2017-12-28T01:05:05.936Z,71.60
2017-12-28T01:07:33.363Z,71.60
2017-12-28T01:10:00.947Z,71.50
2017-12-28T01:12:28.405Z,71.10
2017-12-28T01:14:56.280Z,71.20
2017-12-28T01:17:23.713Z,71.10
2017-12-28T01:19:51.507Z,71.60
2017-12-28T01:22:19.078Z,71.70
2017-12-28T01:24:47.195Z,72.00
2017-12-28T01:27:14.682Z,71.20
2017-12-28T01:29:42.264Z,70.90
2017-12-28T01:32:09.705Z,70.70
2017-12-28T01:34:37.136Z,71.00
2017-12-28T01:37:05.562Z,70.90
2017-12-28T01:39:32.983Z,70.90
2017-12-28T01:42:00.481Z,71.30
2017-12-28T01:44:27.941Z,71.70
2017-12-28T01:46:56.995Z,72.40
2017-12-28T01:49:24.995Z,71.80
2017-12-28T01:51:53.073Z,71.90
2017-12-28T01:54:20.540Z,72.50
2017-12-28T01:56:49.099Z,73.10
2017-12-28T01:59:16.582Z,72.00
2017-12-28T02:01:44.020Z,72.10
2017-12-28T02:04:11.493Z,72.20
2017-12-28T02:06:39.130Z,72.40
2017-12-28T02:09:06.674Z,72.50
2017-12-28T02:11:34.300Z,73.00
2017-12-28T02:14:05.627Z,73.10
2017-12-28T02:16:34.157Z,74.60
2017-12-28T02:19:01.601Z,73.90
2017-12-28T02:21:29.256Z,73.90
2017-12-28T02:23:56.731Z,74.10
2017-12-28T02:26:24.821Z,74.20
2017-12-28T02:28:52.277Z,74.30
2017-12-28T02:31:20.284Z,74.20
2017-12-28T02:33:48.725Z,75.50
2017-12-28T02:36:16.253Z,74.80
2017-12-28T02:38:43.710Z,74.30
2017-12-28T02:41:11.244Z,74.30
2017-12-28T02:43:38.785Z,74.40
2017-12-28T02:46:06.993Z,74.90
2017-12-28T02:48:34.836Z,74.10
2017-12-28T02:51:03.594Z,75.40
2017-12-28T02:53:31.033Z,75.50
2017-12-28T02:55:58.496Z,74.60
2017-12-28T02:58:25.965Z,74.50
2017-12-28T03:00:53.413Z,74.50
2017-12-28T03:03:20.939Z,75.00
2017-12-28T03:05:48.911Z,74.80
2017-12-28T03:08:16.366Z,74.70
2017-12-28T03:10:43.824Z,74.50
2017-12-28T03:13:11.308Z,74.30
2017-12-28T03:15:38.992Z,74.50
2017-12-28T03:18:06.495Z,74.50
2017-12-28T03:20:33.952Z,74.40
2017-12-28T03:23:01.645Z,74.80
2017-12-28T03:25:29.318Z,75.60
2017-12-28T03:27:56.977Z,74.70
2017-12-28T03:30:24.741Z,74.50
2017-12-28T03:32:53.122Z,74.60
2017-12-28T03:35:20.597Z,74.70
2017-12-28T03:37:49.183Z,75.60
2017-12-28T03:40:17.383Z,75.50
2017-12-28T03:42:46.223Z,75.00
2017-12-28T03:45:13.714Z,75.00
2017-12-28T03:47:43.105Z,75.30
2017-12-28T03:50:11.418Z,75.60
2017-12-28T03:52:39.428Z,75.00
2017-12-28T03:55:07.297Z,75.00
2017-12-28T03:57:34.728Z,75.30
2017-12-28T04:00:02.195Z,75.30
2017-12-28T04:02:29.630Z,75.60
2017-12-28T04:04:57.183Z,75.40
2017-12-28T04:07:24.634Z,75.40
2017-12-28T04:09:52.194Z,75.70
2017-12-28T04:12:19.651Z,75.80
2017-12-28T04:14:47.553Z,75.90
2017-12-28T04:17:14.989Z,75.80
2017-12-28T04:19:43.121Z,75.70
2017-12-28T04:22:11.327Z,76.00
2017-12-28T04:24:39.621Z,75.30
2017-12-28T04:27:07.061Z,75.50
2017-12-28T04:29:34.759Z,75.50
2017-12-28T04:32:02.271Z,75.50
2017-12-28T04:34:29.855Z,75.30
2017-12-28T04:36:57.300Z,75.50
2017-12-28T04:39:24.760Z,75.30
2017-12-28T04:41:52.804Z,75.20
2017-12-28T04:44:20.272Z,75.20
2017-12-28T04:46:47.711Z,75.20
2017-12-28T04:49:15.760Z,75.30
2017-12-28T04:51:44.779Z,76.30
2017-12-28T04:54:12.246Z,75.70
2017-12-28T04:56:39.698Z,75.80
2017-12-28T04:59:07.159Z,75.60
2017-12-28T05:01:34.632Z,75.40
2017-12-28T05:04:02.068Z,75.60
2017-12-28T05:06:29.632Z,75.70
2017-12-28T05:08:57.073Z,75.70
2017-12-28T05:11:24.776Z,75.50
2017-12-28T05:13:52.220Z,75.80
2017-12-28T05:16:20.107Z,75.80
2017-12-28T05:18:47.760Z,76.00
2017-12-28T05:21:15.194Z,75.70
2017-12-28T05:23:42.768Z,75.70
2017-12-28T05:26:10.551Z,75.50
2017-12-28T05:28:38.001Z,75.30
2017-12-28T05:31:05.857Z,75.20
2017-12-28T05:33:33.310Z,75.30
2017-12-28T05:36:00.748Z,75.30
2017-12-28T05:38:28.220Z,75.30
2017-12-28T05:40:55.669Z,75.10
2017-12-28T05:43:23.102Z,74.70
2017-12-28T05:45:50.645Z,74.70
2017-12-28T05:48:19.177Z,75.10
2017-12-28T05:50:46.992Z,74.40
2017-12-28T05:53:15.688Z,75.00
2017-12-28T05:55:43.160Z,74.30
2017-12-28T05:58:10.648Z,74.30
2017-12-28T06:00:39.158Z,74.50
2017-12-28T06:03:07.383Z,74.80
2017-12-28T06:05:35.386Z,74.80
2017-12-28T06:08:02.878Z,74.00
2017-12-28T06:10:31.109Z,74.90
2017-12-28T06:12:59.353Z,74.40
2017-12-28T06:15:27.059Z,74.00
2017-12-28T06:17:54.948Z,74.00
2017-12-28T06:20:23.152Z,74.60
2017-12-28T06:22:51.255Z,74.00
2017-12-28T06:25:19.133Z,74.20
2017-12-28T06:27:46.612Z,74.00
2017-12-28T06:30:15.071Z,74.70
2017-12-28T06:32:42.549Z,74.10
2017-12-28T06:35:10.761Z,75.00
2017-12-28T06:37:38.454Z,74.30
2017-12-28T06:40:05.926Z,74.40
2017-12-28T06:42:33.365Z,74.40
2017-12-28T06:45:00.845Z,74.50
2017-12-28T06:47:28.800Z,74.80
2017-12-28T06:49:56.292Z,74.90
2017-12-28T06:52:24.820Z,75.60
2017-12-28T06:54:52.586Z,75.00
2017-12-28T06:57:20.117Z,74.70
2017-12-28T06:59:47.540Z,75.00
2017-12-28T07:02:15.773Z,75.50
2017-12-28T07:04:43.211Z,74.80
2017-12-28T07:07:11.072Z,74.90
2017-12-28T07:09:38.488Z,74.70
2017-12-28T07:12:06.728Z,75.30
2017-12-28T07:14:34.588Z,74.50
2017-12-28T07:17:02.578Z,74.40
2017-12-28T07:19:30.777Z,75.00
2017-12-28T07:21:58.392Z,75.10
2017-12-28T07:24:26.542Z,74.00
2017-12-28T07:26:53.997Z,74.50
2017-12-28T07:29:21.963Z,74.20
2017-12-28T07:31:49.422Z,74.00
2017-12-28T07:34:16.877Z,74.10
2017-12-28T07:36:44.321Z,74.20
2017-12-28T07:39:11.791Z,74.00
2017-12-28T07:41:39.316Z,74.20
2017-12-28T07:44:07.525Z,75.20
2017-12-28T07:46:35.071Z,74.60
2017-12-28T07:49:03.896Z,74.40
2017-12-28T07:51:32.584Z,74.00
2017-12-28T07:54:00.546Z,74.40
2017-12-28T07:56:28.190Z,74.40
2017-12-28T07:58:55.620Z,74.40
2017-12-28T08:01:23.204Z,74.50
2017-12-28T08:03:50.655Z,74.20
2017-12-28T08:06:18.120Z,74.40
2017-12-28T08:08:45.569Z,74.60
2017-12-28T08:11:13.229Z,74.40
2017-12-28T08:13:40.683Z,74.50
2017-12-28T08:16:08.614Z,74.60
2017-12-28T08:18:36.827Z,75.60
2017-12-28T08:21:04.619Z,74.80
2017-12-28T08:23:32.077Z,75.00
2017-12-28T08:25:59.778Z,74.60
2017-12-28T08:28:28.021Z,75.00
2017-12-28T08:30:56.944Z,74.30
2017-12-28T08:33:25.222Z,75.30
2017-12-28T08:35:52.681Z,74.60
2017-12-28T08:38:20.163Z,74.60
2017-12-28T08:40:47.620Z,74.60
2017-12-28T08:43:15.794Z,74.80
2017-12-28T08:45:43.286Z,74.70
2017-12-28T08:48:11.136Z,74.70
2017-12-28T08:50:39.153Z,74.90
2017-12-28T08:53:06.988Z,75.10
2017-12-28T08:55:34.460Z,75.10
2017-12-28T08:58:02.676Z,76.20
2017-12-28T09:00:30.168Z,75.60
2017-12-28T09:02:57.945Z,75.70
2017-12-28T09:05:26.288Z,76.40
2017-12-28T09:07:53.733Z,76.30
2017-12-28T09:10:21.220Z,75.60
2017-12-28T09:12:48.668Z,75.50
2017-12-28T09:15:16.551Z,75.60
2017-12-28T09:17:43.992Z,75.50
2017-12-28T09:20:11.477Z,75.40
2017-12-28T09:22:39.194Z,75.70
2017-12-28T09:25:07.160Z,75.50
2017-12-28T09:27:34.616Z,75.40
2017-12-28T09:30:02.723Z,75.50
2017-12-28T09:32:30.493Z,75.30
2017-12-28T09:34:58.217Z,75.30
2017-12-28T09:37:25.656Z,75.70
2017-12-28T09:39:53.130Z,75.60
2017-12-28T09:42:20.690Z,75.60
2017-12-28T09:44:48.143Z,75.30
2017-12-28T09:47:16.457Z,75.50
2017-12-28T09:49:43.901Z,75.90
2017-12-28T09:52:12.179Z,75.00
2017-12-28T09:54:39.630Z,75.00
2017-12-28T09:57:07.269Z,75.00
2017-12-28T09:59:34.880Z,74.40
2017-12-28T10:02:02.834Z,74.50
2017-12-28T10:04:30.273Z,75.30
2017-12-28T10:06:57.756Z,74.60
2017-12-28T10:09:25.222Z,74.20
2017-12-28T10:11:52.868Z,73.90
2017-12-28T10:14:20.932Z,74.60
2017-12-28T10:16:48.392Z,73.90
2017-12-28T10:19:16.573Z,73.60
2017-12-28T10:21:44.016Z,74.00
2017-12-28T10:24:11.456Z,74.00
2017-12-28T10:26:39.339Z,73.30
2017-12-28T10:29:07.409Z,72.40
2017-12-28T10:31:35.178Z,71.90
2017-12-28T10:34:02.686Z,71.40
2017-12-28T10:36:30.183Z,71.20
2017-12-28T10:38:57.621Z,70.10
2017-12-28T10:41:25.088Z,69.60
2017-12-28T10:43:53.922Z,69.00
2017-12-28T10:46:21.368Z,68.30
2017-12-28T10:48:49.278Z,68.80
2017-12-28T10:51:16.726Z,68.70
2017-12-28T10:53:44.497Z,68.50
2017-12-28T10:56:11.946Z,67.90
2017-12-28T10:58:39.418Z,66.80
2017-12-28T11:01:06.864Z,67.00
2017-12-28T11:03:34.324Z,66.00
2017-12-28T11:06:01.783Z,66.20
2017-12-28T11:08:29.785Z,66.50
2017-12-28T11:10:57.308Z,65.80
2017-12-28T11:13:24.777Z,63.80
2017-12-28T11:15:52.835Z,63.40
2017-12-28T11:18:20.270Z,63.70
2017-12-28T11:20:48.483Z,63.60
2017-12-28T11:23:16.070Z,63.00
2017-12-28T11:25:43.980Z,62.60
2017-12-28T11:28:11.424Z,62.60
2017-12-28T11:30:39.308Z,61.90
2017-12-28T11:33:06.771Z,62.20
2017-12-28T11:35:34.331Z,61.60
2017-12-28T11:38:01.786Z,62.50
2017-12-28T11:40:29.300Z,61.50
2017-12-28T11:42:56.723Z,61.00
2017-12-28T11:45:24.588Z,60.80
2017-12-28T11:47:54.405Z,61.00
2017-12-28T11:50:21.884Z,61.20
2017-12-28T11:52:55.748Z,60.60
2017-12-28T11:55:23.960Z,61.20
2017-12-28T11:57:55.371Z,60.50
2017-12-28T12:00:27.837Z,61.00
2017-12-28T12:03:01.927Z,62.20
2017-12-28T12:05:45.185Z,61.60
2017-12-28T12:08:18.618Z,62.20
2017-12-28T12:10:51.079Z,62.30
2017-12-28T12:13:18.561Z,62.40
2017-12-28T12:15:46.471Z,62.20
2017-12-28T12:18:13.959Z,60.80
2017-12-28T12:20:41.652Z,59.90
2017-12-28T12:23:10.130Z,61.90
2017-12-28T12:25:38.044Z,61.20
2017-12-28T12:28:05.513Z,60.60
2017-12-28T12:30:33.421Z,60.10
2017-12-28T12:33:01.287Z,59.90
2017-12-28T12:35:29.780Z,60.60
2017-12-28T12:37:57.994Z,60.10
2017-12-28T12:40:25.550Z,59.50
2017-12-28T12:42:53.168Z,59.70
2017-12-28T12:45:21.140Z,59.80
2017-12-28T12:47:49.960Z,59.90
2017-12-28T12:50:17.425Z,59.30
2017-12-28T12:52:44.979Z,58.90
2017-12-28T12:55:12.654Z,59.30
2017-12-28T12:57:40.227Z,59.40
2017-12-28T13:00:07.692Z,59.40
2017-12-28T13:02:35.212Z,59.10
2017-12-28T13:05:03.430Z,60.40
2017-12-28T13:07:30.938Z,59.70
2017-12-28T13:09:58.548Z,60.10
2017-12-28T13:12:26.109Z,59.80
2017-12-28T13:14:53.854Z,60.40
2017-12-28T13:17:21.300Z,61.30
2017-12-28T13:19:48.738Z,59.60
2017-12-28T13:22:16.241Z,60.00
2017-12-28T13:24:43.990Z,59.50
2017-12-28T13:27:11.466Z,58.50
2017-12-28T13:29:39.450Z,57.80
2017-12-28T13:32:07.683Z,58.40
2017-12-28T13:34:35.378Z,57.80
2017-12-28T13:37:02.983Z,58.10
2017-12-28T13:39:30.421Z,58.40
2017-12-28T13:41:58.044Z,58.50
2017-12-28T13:44:26.396Z,59.40
2017-12-28T13:46:53.855Z,58.80
2017-12-28T13:49:21.733Z,59.20
2017-12-28T13:51:49.248Z,59.00
2017-12-28T13:54:17.143Z,59.20
2017-12-28T13:56:44.913Z,59.70
2017-12-28T13:59:12.439Z,59.80
2017-12-28T14:01:39.999Z,59.30
2017-12-28T14:04:07.454Z,58.60
2017-12-28T14:06:35.016Z,58.70
2017-12-28T14:09:02.720Z,58.30
2017-12-28T14:11:30.172Z,58.90
2017-12-28T14:13:58.453Z,58.80
2017-12-28T14:16:25.900Z,58.90
2017-12-28T14:18:53.578Z,58.60
2017-12-28T14:21:21.771Z,58.40
2017-12-28T14:23:50.002Z,59.30
2017-12-28T14:26:17.954Z,58.60
2017-12-28T14:28:45.501Z,58.80
2017-12-28T14:31:13.400Z,59.40
2017-12-28T14:33:40.856Z,59.00
2017-12-28T14:36:08.566Z,59.10
2017-12-28T14:38:36.803Z,60.10
2017-12-28T14:41:04.326Z,59.60
2017-12-28T14:43:31.752Z,59.40
2017-12-28T14:46:00.087Z,59.90
2017-12-28T14:48:27.738Z,60.00
2017-12-28T14:50:55.445Z,59.50
2017-12-28T14:53:24.344Z,60.00
2017-12-28T14:55:51.802Z,59.40
2017-12-28T14:58:19.289Z,59.40
2017-12-28T15:00:46.774Z,59.40
2017-12-28T15:03:14.218Z,59.40
2017-12-28T15:05:42.522Z,59.90
2017-12-28T15:08:09.944Z,60.00
2017-12-28T15:10:37.732Z,60.40
2017-12-28T15:13:05.257Z,60.10
2017-12-28T15:15:32.964Z,60.20
2017-12-28T15:18:00.450Z,60.20
2017-12-28T15:20:27.966Z,60.00
2017-12-28T15:22:55.412Z,60.30
2017-12-28T15:25:23.502Z,60.40
2017-12-28T15:27:50.964Z,60.10
2017-12-28T15:30:18.879Z,59.90
2017-12-28T15:32:46.334Z,60.10
2017-12-28T15:35:13.805Z,60.10
2017-12-28T15:37:41.450Z,60.30
2017-12-28T15:40:08.887Z,60.30
2017-12-28T15:42:37.106Z,60.80
2017-12-28T15:45:05.148Z,60.00
2017-12-28T15:47:33.136Z,60.60
2017-12-28T15:50:00.678Z,60.90
2017-12-28T15:52:28.140Z,60.90
2017-12-28T15:54:55.860Z,61.40
2017-12-28T15:57:24.684Z,62.40
2017-12-28T15:59:52.253Z,61.40
2017-12-28T16:02:19.767Z,61.70
2017-12-28T16:04:48.087Z,62.20
2017-12-28T16:07:15.990Z,61.60
2017-12-28T16:09:43.433Z,61.40
2017-12-28T16:12:10.898Z,61.70
2017-12-28T16:14:39.891Z,61.90
2017-12-28T16:17:07.339Z,62.00
2017-12-28T16:19:34.870Z,62.00
2017-12-28T16:22:02.303Z,62.00
2017-12-28T16:24:32.169Z,62.90
2017-12-28T16:26:59.611Z,62.30
2017-12-28T16:29:27.605Z,62.50
2017-12-28T16:31:55.040Z,62.60
2017-12-28T16:34:22.531Z,62.90
2017-12-28T16:36:49.952Z,62.90
2017-12-28T16:39:18.122Z,63.00
2017-12-28T16:41:45.565Z,63.10
2017-12-28T16:44:13.549Z,63.10
2017-12-28T16:46:41.595Z,63.30
2017-12-28T16:49:09.338Z,63.40
2017-12-28T16:51:37.044Z,63.70
2017-12-28T16:54:04.560Z,63.70
2017-12-28T16:56:32.510Z,63.50
2017-12-28T16:59:00.833Z,64.00
2017-12-28T17:01:29.479Z,63.30
2017-12-28T17:03:57.894Z,64.70
2017-12-28T17:06:25.345Z,64.00
2017-12-28T17:08:52.899Z,64.10
2017-12-28T17:11:20.573Z,64.30
2017-12-28T17:13:48.056Z,64.50
2017-12-28T17:16:16.710Z,64.50
2017-12-28T17:18:44.160Z,64.80
2017-12-28T17:21:11.820Z,65.00
2017-12-28T17:23:39.283Z,65.20
2017-12-28T17:26:07.247Z,65.40
2017-12-28T17:28:35.060Z,65.50
2017-12-28T17:31:02.998Z,65.50
2017-12-28T17:33:30.544Z,65.70
2017-12-28T17:35:58.758Z,65.70
2017-12-28T17:38:26.268Z,65.50
2017-12-28T17:40:53.951Z,65.80
2017-12-28T17:43:21.425Z,65.90
2017-12-28T17:45:48.882Z,65.80
2017-12-28T17:48:17.918Z,65.50
2017-12-28T17:50:46.629Z,66.30
2017-12-28T17:53:14.660Z,65.70
2017-12-28T17:55:43.228Z,66.10
2017-12-28T17:58:10.741Z,65.30
2017-12-28T18:00:38.194Z,65.50
2017-12-28T18:03:05.851Z,65.80
2017-12-28T18:05:33.363Z,65.90
2017-12-28T18:08:01.989Z,66.10
2017-12-28T18:10:30.024Z,66.80
2017-12-28T18:12:58.385Z,66.80
2017-12-28T18:15:26.560Z,66.00
2017-12-28T18:17:54.070Z,66.00
2017-12-28T18:20:21.621Z,66.00
2017-12-28T18:22:49.660Z,66.00
2017-12-28T18:25:18.332Z,66.90
2017-12-28T18:27:46.062Z,66.30
2017-12-28T18:30:13.936Z,65.60
2017-12-28T18:32:41.459Z,66.30
2017-12-28T18:35:09.235Z,66.50
2017-12-28T18:37:37.003Z,66.60
2017-12-28T18:40:04.444Z,66.40
2017-12-28T18:42:31.990Z,66.70
2017-12-28T18:45:00.288Z,67.60
2017-12-28T18:47:28.364Z,66.80
2017-12-28T18:49:55.856Z,66.90
2017-12-28T18:52:23.377Z,66.90
2017-12-28T18:54:51.919Z,67.00
2017-12-28T18:57:20.438Z,67.70
2017-12-28T18:59:47.933Z,67.10
2017-12-28T19:02:15.539Z,67.10
2017-12-28T19:04:43.174Z,66.80
2017-12-28T19:07:11.385Z,67.00
2017-12-28T19:09:38.953Z,66.40
2017-12-28T19:12:06.918Z,66.60
2017-12-28T19:14:34.963Z,66.90
2017-12-28T19:17:03.191Z,68.00
2017-12-28T19:19:30.717Z,67.30
2017-12-28T19:21:59.271Z,67.40
2017-12-28T19:24:28.805Z,67.90
2017-12-28T19:26:58.106Z,67.90
2017-12-28T19:29:27.012Z,67.20
2017-12-28T19:31:56.617Z,68.00
2017-12-28T19:34:25.902Z,67.90
2017-12-28T19:36:55.407Z,67.90
2017-12-28T19:39:23.501Z,67.00
2017-12-28T19:41:51.355Z,67.10
2017-12-28T19:44:19.763Z,68.10
2017-12-28T19:46:48.098Z,67.50
2017-12-28T19:49:16.374Z,67.40
2017-12-28T19:51:44.240Z,67.50
2017-12-28T19:54:12.212Z,67.70
2017-12-28T19:56:40.489Z,67.90
2017-12-28T19:59:08.803Z,68.10
2017-12-28T20:01:36.381Z,68.10
2017-12-28T20:04:04.287Z,68.40
2017-12-28T20:06:32.154Z,68.50
2017-12-28T20:08:59.735Z,68.80
2017-12-28T20:11:27.644Z,69.00
2017-12-28T20:13:55.438Z,69.10
2017-12-28T20:16:24.538Z,69.20
2017-12-28T20:18:52.302Z,69.40
2017-12-28T20:21:20.123Z,69.40
2017-12-28T20:23:48.042Z,69.40
2017-12-28T20:26:16.320Z,69.30
2017-12-28T20:28:44.281Z,69.40
2017-12-28T20:31:12.323Z,69.70
2017-12-28T20:33:41.238Z,70.00
2017-12-28T20:36:10.049Z,70.80
2017-12-28T20:38:42.897Z,70.50
2017-12-28T20:41:12.917Z,70.50
2017-12-28T20:43:41.558Z,69.80
2017-12-28T20:46:10.431Z,69.80
2017-12-28T20:48:39.578Z,69.90
2017-12-28T20:51:09.207Z,70.50
2017-12-28T20:53:38.046Z,69.80
2017-12-28T20:56:07.387Z,70.10
2017-12-28T20:58:36.205Z,70.00
2017-12-28T21:01:05.191Z,70.10
2017-12-28T21:03:32.864Z,70.10
2017-12-28T21:06:00.377Z,70.00
2017-12-28T21:08:28.186Z,70.00
2017-12-28T21:10:56.965Z,69.70
2017-12-28T21:13:25.742Z,70.60
2017-12-28T21:15:53.958Z,70.00
2017-12-28T21:18:21.849Z,69.60
2017-12-28T21:20:50.916Z,70.50
2017-12-28T21:23:20.041Z,69.90
2017-12-28T21:25:49.261Z,69.80
2017-12-28T21:28:17.049Z,69.70
2017-12-28T21:30:45.564Z,69.60
2017-12-28T21:33:14.212Z,69.80
2017-12-28T21:35:44.126Z,70.60
2017-12-28T21:38:13.215Z,70.00
2017-12-28T21:40:41.723Z,70.70
2017-12-28T21:43:10.157Z,70.10
2017-12-28T21:45:38.638Z,70.80
2017-12-28T21:48:07.374Z,70.20
2017-12-28T21:50:34.988Z,70.20
2017-12-28T21:53:02.549Z,70.30
2017-12-28T21:55:31.079Z,70.40
2017-12-28T21:58:01.046Z,71.30
2017-12-28T22:00:28.744Z,70.60
2017-12-28T22:02:57.185Z,70.70
2017-12-28T22:05:26.690Z,71.50
2017-12-28T22:07:54.569Z,70.90
2017-12-28T22:10:22.256Z,71.00
2017-12-28T22:12:51.476Z,71.50
2017-12-28T22:15:20.196Z,71.50
2017-12-28T22:17:47.874Z,70.80
2017-12-28T22:20:15.328Z,70.90
2017-12-28T22:22:42.852Z,70.90
2017-12-28T22:25:10.826Z,70.90
2017-12-28T22:27:38.403Z,70.60
2017-12-28T22:30:06.158Z,70.60
2017-12-28T22:32:33.828Z,70.70
2017-12-28T22:35:01.295Z,70.40
2017-12-28T22:37:28.990Z,70.50
2017-12-28T22:39:56.447Z,70.60
2017-12-28T22:42:24.497Z,70.60
2017-12-28T22:44:51.965Z,71.00
2017-12-28T22:47:20.045Z,70.50
2017-12-28T22:49:47.535Z,70.40
2017-12-28T22:52:15.430Z,70.60
2017-12-28T22:54:42.907Z,70.60
2017-12-28T22:57:10.860Z,70.60
2017-12-28T22:59:38.343Z,70.50
2017-12-28T23:02:05.994Z,70.60
2017-12-28T23:04:33.424Z,70.60
2017-12-28T23:07:00.924Z,70.90
2017-12-28T23:09:28.405Z,70.80
2017-12-28T23:11:57.211Z,71.50
2017-12-28T23:14:25.297Z,70.90
2017-12-28T23:16:52.855Z,71.00
2017-12-28T23:19:20.293Z,71.10
2017-12-28T23:21:48.015Z,71.00
2017-12-28T23:24:16.008Z,71.10
2017-12-28T23:26:44.528Z,71.60
2017-12-28T23:29:12.505Z,71.00
2017-12-28T23:31:39.992Z,71.10
2017-12-28T23:34:08.221Z,71.70
2017-12-28T23:36:35.782Z,71.10
2017-12-28T23:39:03.312Z,71.20
2017-12-28T23:41:30.796Z,71.30
2017-12-28T23:43:58.253Z,71.30
2017-12-28T23:46:25.960Z,71.30
2017-12-28T23:48:54.021Z,71.40
2017-12-28T23:51:22.107Z,71.60
2017-12-28T23:53:49.545Z,71.50
2017-12-28T23:56:17.785Z,72.60
2017-12-28T23:58:45.759Z,71.30
